Portada
METAR-TAF:

METAR-TAF

Aeroports :

Piešťany, Eslovàquia

latitud: 48-37-30N, longitud: 017-49-43E, altitud: 163 m

Observació

L'informe es va fer fa 18 minuts, a les 02:30 UTC
Vent calma
Temperatura -1°C
Humitat 86%
Pressió 1023 hPa
Visibilitat: 7000 m

METAR: LZPP 250230Z AUTO 00000KT 7000 OVC008/// M01/M03 Q1023

Hora: 03:48 (02:48 UTC)

Pronòstic

L'informe es va fer fa 8 hores i 49 minuts, a les 17:59 UTC
Pronòstic vàlid del 24 a les 18 UTC al 25 a les 03 UTC
Vent 2 kt amb direcció variable
Visibilitat: 5000 m
Cel cobert a una alçada de 1000 ft
boirina
Evolucionant progressivament
l' 24 a les 18 UTC al 24 a les 20 UTC
Visibilitat: 2500 m
Cel cobert a una alçada de 400 ft
boirina
Temporalment
l' 24 a les 19 UTC al 25 a les 03 UTC
Visibilitat: 1200 m
Cel cobert a una alçada de 200 ft
boira en bancs

TAF: LZPP 241759Z 2418/2503 VRB02KT 5000 BR OVC010 BECMG 2418/2420 2500 BR OVC004 TEMPO 2419/2503 1200 BCFG OVC002

Observacions i pronòstics meteorològics de més de 4000 aeroports (METAR i TAF).

Les estacions disponibles són els punts grocs i vermells al mapa.

Posi el ratolí al punt desitjat per veure el nom de l'estació.

Feu clic per veure les observacions i els pronòstics meteorològics.

Per canviar el mapa: feu clic els botons verds amb una creu de color negre per apropar; al botó verd amb un guió per allunyar la imatge; o en les fletxes verdes per a mapes adjacents.


METAR-TAF: